BLY2041 EINN-EGNT
Flight info
| Callsign | BLY2041 |
|---|---|
| Flight time | 0h 58m |
| Altitude | 37000 |
| Route | OSGAR DCT ENDEQ Q36 ALAVA Z195 MALUD UL975 WAL DCT POL |
| Aircraft | A320/M-SDE3FGHIRWY/LB1 |
Departure
| Time | 2026-05-08 18:22 |
|---|---|
| Airport | Shannon Airport (EINN) |
Arrival
| Time | 2026-05-08 19:20 |
|---|---|
| Airport | Newcastle International Airport (EGNT) |
| Time | Latitude | Longitude | Altitude | Speed | Heading |
|---|---|---|---|---|---|
| 2026-05-08 17:58 | 52.69375 | -8.92176 | 25 ft | 0 kts | 186° |
| 2026-05-08 18:12 | 52.69376 | -8.92175 | 22 ft | 0 kts | 186° |
| 2026-05-08 18:14 | 52.69386 | -8.92174 | 23 ft | 2 kts | 185° |
| 2026-05-08 18:14 | 52.69402 | -8.92170 | 22 ft | 2 kts | 188° |
| 2026-05-08 18:14 | 52.69418 | -8.92166 | 22 ft | 2 kts | 191° |
| 2026-05-08 18:15 | 52.69434 | -8.92160 | 23 ft | 2 kts | 196° |
| 2026-05-08 18:15 | 52.69450 | -8.92152 | 23 ft | 2 kts | 204° |
| 2026-05-08 18:15 | 52.69465 | -8.92139 | 26 ft | 2 kts | 227° |
| 2026-05-08 18:15 | 52.69473 | -8.92116 | 21 ft | 2 kts | 273° |
| 2026-05-08 18:16 | 52.69472 | -8.92101 | 21 ft | 0 kts | 284° |
| 2026-05-08 18:17 | 52.69472 | -8.92104 | 21 ft | 1 kts | 285° |
| 2026-05-08 18:17 | 52.69484 | -8.92168 | 22 ft | 13 kts | 288° |
| 2026-05-08 18:18 | 52.69527 | -8.92323 | 22 ft | 19 kts | 301° |
| 2026-05-08 18:18 | 52.69619 | -8.92490 | 22 ft | 20 kts | 315° |
| 2026-05-08 18:18 | 52.69722 | -8.92655 | 22 ft | 21 kts | 316° |
| 2026-05-08 18:18 | 52.69826 | -8.92822 | 22 ft | 18 kts | 313° |
| 2026-05-08 18:19 | 52.69861 | -8.92879 | 22 ft | 0 kts | 315° |
| 2026-05-08 18:19 | 52.69886 | -8.92920 | 23 ft | 10 kts | 315° |
| 2026-05-08 18:20 | 52.69947 | -8.92971 | 23 ft | 11 kts | 1° |
| 2026-05-08 18:20 | 52.69976 | -8.92945 | 24 ft | 0 kts | 44° |
| 2026-05-08 18:21 | 52.69976 | -8.92944 | 24 ft | 0 kts | 44° |
| 2026-05-08 18:21 | 52.69996 | -8.92907 | 21 ft | 31 kts | 51° |
| 2026-05-08 18:22 | 52.70347 | -8.92168 | 19 ft | 125 kts | 52° |
| 2026-05-08 18:22 | 52.70974 | -8.90840 | 531 ft | 153 kts | 50° |
| 2026-05-08 18:22 | 52.71622 | -8.89379 | 1402 ft | 166 kts | 53° |
| 2026-05-08 18:22 | 52.72293 | -8.87685 | 2213 ft | 183 kts | 57° |
| 2026-05-08 18:23 | 52.72895 | -8.85823 | 2887 ft | 192 kts | 66° |
| 2026-05-08 18:23 | 52.73365 | -8.83607 | 3325 ft | 217 kts | 71° |
| 2026-05-08 18:23 | 52.73818 | -8.81107 | 3777 ft | 239 kts | 72° |
| 2026-05-08 18:23 | 52.74313 | -8.78374 | 4527 ft | 248 kts | 71° |
| 2026-05-08 18:24 | 52.74831 | -8.75628 | 5409 ft | 253 kts | 72° |
| 2026-05-08 18:24 | 52.75382 | -8.72819 | 6238 ft | 260 kts | 72° |
| 2026-05-08 18:24 | 52.75960 | -8.69961 | 7077 ft | 265 kts | 72° |
| 2026-05-08 18:24 | 52.76555 | -8.67066 | 7919 ft | 270 kts | 72° |
| 2026-05-08 18:25 | 52.77172 | -8.64097 | 8737 ft | 275 kts | 71° |
| 2026-05-08 18:25 | 52.77802 | -8.61083 | 9571 ft | 280 kts | 72° |
| 2026-05-08 18:25 | 52.78443 | -8.58020 | 10340 ft | 287 kts | 72° |
| 2026-05-08 18:25 | 52.79118 | -8.54777 | 10637 ft | 310 kts | 73° |
| 2026-05-08 18:26 | 52.79836 | -8.51310 | 11033 ft | 326 kts | 73° |
| 2026-05-08 18:26 | 52.80581 | -8.47716 | 11685 ft | 333 kts | 72° |
| 2026-05-08 18:26 | 52.81342 | -8.44068 | 12383 ft | 340 kts | 72° |
| 2026-05-08 18:26 | 52.82120 | -8.40335 | 13067 ft | 346 kts | 73° |
| 2026-05-08 18:27 | 52.82916 | -8.36492 | 13787 ft | 351 kts | 73° |
| 2026-05-08 18:27 | 52.83442 | -8.33945 | 14205 ft | 355 kts | 73° |
| 2026-05-08 18:27 | 52.84522 | -8.28717 | 15040 ft | 362 kts | 72° |
| 2026-05-08 18:27 | 52.85343 | -8.24741 | 15693 ft | 367 kts | 72° |
| 2026-05-08 18:28 | 52.86170 | -8.20719 | 16336 ft | 372 kts | 72° |
| 2026-05-08 18:28 | 52.87004 | -8.16641 | 16996 ft | 377 kts | 72° |
| 2026-05-08 18:28 | 52.87847 | -8.12506 | 17648 ft | 382 kts | 72° |
| 2026-05-08 18:28 | 52.88701 | -8.08317 | 18254 ft | 387 kts | 72° |
| 2026-05-08 18:29 | 52.89567 | -8.04067 | 18791 ft | 392 kts | 72° |
| 2026-05-08 18:29 | 52.90446 | -7.99754 | 19344 ft | 397 kts | 73° |
| 2026-05-08 18:29 | 52.91330 | -7.95404 | 19884 ft | 401 kts | 73° |
| 2026-05-08 18:29 | 52.92224 | -7.90996 | 20454 ft | 405 kts | 73° |
| 2026-05-08 18:30 | 52.93125 | -7.86541 | 21015 ft | 410 kts | 73° |
| 2026-05-08 18:30 | 52.94033 | -7.82044 | 21570 ft | 414 kts | 73° |
| 2026-05-08 18:30 | 52.94947 | -7.77498 | 22121 ft | 418 kts | 73° |
| 2026-05-08 18:30 | 52.95867 | -7.72900 | 22678 ft | 422 kts | 73° |
| 2026-05-08 18:31 | 52.96793 | -7.68250 | 23230 ft | 426 kts | 73° |
| 2026-05-08 18:31 | 52.97728 | -7.63559 | 23750 ft | 431 kts | 73° |
| 2026-05-08 18:31 | 52.98675 | -7.58816 | 24155 ft | 434 kts | 74° |
| 2026-05-08 18:31 | 52.99628 | -7.54038 | 24584 ft | 438 kts | 74° |
| 2026-05-08 18:32 | 53.00589 | -7.49214 | 25002 ft | 442 kts | 74° |
| 2026-05-08 18:32 | 53.01551 | -7.44354 | 25407 ft | 445 kts | 74° |
| 2026-05-08 18:32 | 53.02529 | -7.39378 | 25836 ft | 449 kts | 74° |
| 2026-05-08 18:32 | 53.03498 | -7.34424 | 26188 ft | 454 kts | 74° |
| 2026-05-08 18:33 | 53.04476 | -7.29410 | 26568 ft | 458 kts | 74° |
| 2026-05-08 18:33 | 53.05479 | -7.24354 | 26955 ft | 462 kts | 73° |
| 2026-05-08 18:33 | 53.06580 | -7.19320 | 27337 ft | 466 kts | 71° |
| 2026-05-08 18:33 | 53.07764 | -7.14283 | 27714 ft | 469 kts | 70° |
| 2026-05-08 18:34 | 53.08988 | -7.09228 | 28071 ft | 473 kts | 70° |
| 2026-05-08 18:34 | 53.10225 | -7.04142 | 28443 ft | 476 kts | 70° |
| 2026-05-08 18:34 | 53.11456 | -6.99007 | 28812 ft | 480 kts | 70° |
| 2026-05-08 18:34 | 53.12673 | -6.93814 | 29174 ft | 483 kts | 71° |
| 2026-05-08 18:35 | 53.13881 | -6.88572 | 29528 ft | 486 kts | 71° |
| 2026-05-08 18:35 | 53.15079 | -6.83294 | 29881 ft | 489 kts | 71° |
| 2026-05-08 18:35 | 53.16281 | -6.77974 | 30214 ft | 493 kts | 71° |
| 2026-05-08 18:35 | 53.17506 | -6.72537 | 30501 ft | 496 kts | 71° |
| 2026-05-08 18:36 | 53.18724 | -6.67138 | 30802 ft | 498 kts | 71° |
| 2026-05-08 18:36 | 53.19946 | -6.61723 | 31093 ft | 501 kts | 71° |
| 2026-05-08 18:36 | 53.21178 | -6.56273 | 31395 ft | 504 kts | 71° |
| 2026-05-08 18:36 | 53.22418 | -6.50779 | 31627 ft | 509 kts | 71° |
| 2026-05-08 18:37 | 53.23670 | -6.45219 | 31743 ft | 515 kts | 71° |
| 2026-05-08 18:37 | 53.24932 | -6.39601 | 31900 ft | 520 kts | 71° |
| 2026-05-08 18:37 | 53.26222 | -6.33858 | 32112 ft | 521 kts | 71° |
| 2026-05-08 18:37 | 53.27472 | -6.28273 | 32392 ft | 522 kts | 71° |
| 2026-05-08 18:38 | 53.28759 | -6.22497 | 32735 ft | 522 kts | 71° |
| 2026-05-08 18:38 | 53.30021 | -6.16818 | 33051 ft | 521 kts | 71° |
| 2026-05-08 18:38 | 53.31278 | -6.11134 | 33352 ft | 521 kts | 71° |
| 2026-05-08 18:38 | 53.32532 | -6.05443 | 33653 ft | 521 kts | 71° |
| 2026-05-08 18:39 | 53.33781 | -5.99759 | 33979 ft | 520 kts | 71° |
| 2026-05-08 18:39 | 53.35026 | -5.94075 | 34264 ft | 520 kts | 71° |
| 2026-05-08 18:39 | 53.36268 | -5.88394 | 34539 ft | 519 kts | 71° |
| 2026-05-08 18:39 | 53.37506 | -5.82720 | 34829 ft | 518 kts | 71° |
| 2026-05-08 18:40 | 53.38738 | -5.77047 | 35121 ft | 517 kts | 71° |
| 2026-05-08 18:40 | 53.39964 | -5.71385 | 35417 ft | 516 kts | 71° |
| 2026-05-08 18:40 | 53.41197 | -5.65679 | 35717 ft | 514 kts | 71° |
| 2026-05-08 18:40 | 53.42410 | -5.60058 | 36012 ft | 513 kts | 71° |
| 2026-05-08 18:41 | 53.43548 | -5.54403 | 36317 ft | 511 kts | 76° |
| 2026-05-08 18:41 | 53.44228 | -5.48577 | 36609 ft | 507 kts | 86° |
| 2026-05-08 18:41 | 53.44394 | -5.42699 | 36888 ft | 503 kts | 95° |
| 2026-05-08 18:41 | 53.44246 | -5.36855 | 37090 ft | 502 kts | 95° |
| 2026-05-08 18:42 | 53.43948 | -5.25202 | 37117 ft | 501 kts | 95° |
| 2026-05-08 18:42 | 53.43650 | -5.13516 | 37120 ft | 501 kts | 95° |
| 2026-05-08 18:43 | 53.43353 | -5.03721 | 37121 ft | 501 kts | 96° |
| 2026-05-08 18:43 | 53.42959 | -4.91971 | 37117 ft | 501 kts | 96° |
| 2026-05-08 18:44 | 53.42564 | -4.80304 | 37122 ft | 502 kts | 96° |
| 2026-05-08 18:44 | 53.42174 | -4.68612 | 37122 ft | 502 kts | 96° |
| 2026-05-08 18:45 | 53.41775 | -4.56927 | 37114 ft | 502 kts | 96° |
| 2026-05-08 18:45 | 53.41358 | -4.45155 | 37124 ft | 503 kts | 96° |
| 2026-05-08 18:46 | 53.40925 | -4.33457 | 37131 ft | 503 kts | 96° |
| 2026-05-08 18:46 | 53.40474 | -4.21686 | 37134 ft | 503 kts | 96° |
| 2026-05-08 18:47 | 53.40019 | -4.09989 | 37115 ft | 503 kts | 96° |
| 2026-05-08 18:47 | 53.39586 | -3.98308 | 37126 ft | 503 kts | 92° |
| 2026-05-08 18:48 | 53.40067 | -3.86577 | 37130 ft | 505 kts | 86° |
| 2026-05-08 18:48 | 53.40669 | -3.74863 | 37131 ft | 505 kts | 86° |
| 2026-05-08 18:49 | 53.41235 | -3.63123 | 37130 ft | 505 kts | 88° |
| 2026-05-08 18:49 | 53.40931 | -3.51453 | 37126 ft | 502 kts | 96° |
| 2026-05-08 18:50 | 53.40401 | -3.39684 | 37121 ft | 502 kts | 96° |
| 2026-05-08 18:50 | 53.39874 | -3.28097 | 37112 ft | 502 kts | 96° |
| 2026-05-08 18:51 | 53.39873 | -3.16321 | 36761 ft | 504 kts | 82° |
| 2026-05-08 18:51 | 53.40636 | -3.10634 | 36497 ft | 495 kts | 71° |
| 2026-05-08 18:51 | 53.41980 | -3.05388 | 36223 ft | 487 kts | 59° |
| 2026-05-08 18:52 | 53.43663 | -3.00485 | 35955 ft | 484 kts | 58° |
| 2026-05-08 18:52 | 53.45360 | -2.95608 | 35652 ft | 484 kts | 58° |
| 2026-05-08 18:52 | 53.47061 | -2.90738 | 35109 ft | 483 kts | 58° |
| 2026-05-08 18:52 | 53.48757 | -2.85870 | 34606 ft | 481 kts | 58° |
| 2026-05-08 18:53 | 53.50437 | -2.81027 | 34144 ft | 480 kts | 58° |
| 2026-05-08 18:53 | 53.52102 | -2.76191 | 33600 ft | 477 kts | 58° |
| 2026-05-08 18:53 | 53.53753 | -2.71371 | 33115 ft | 474 kts | 58° |
| 2026-05-08 18:53 | 53.55389 | -2.66572 | 32613 ft | 471 kts | 58° |
| 2026-05-08 18:54 | 53.57007 | -2.61811 | 32112 ft | 468 kts | 59° |
| 2026-05-08 18:54 | 53.58616 | -2.57068 | 31584 ft | 465 kts | 59° |
| 2026-05-08 18:54 | 53.60218 | -2.52353 | 31121 ft | 462 kts | 59° |
| 2026-05-08 18:54 | 53.61807 | -2.47670 | 30629 ft | 459 kts | 59° |
| 2026-05-08 18:55 | 53.64977 | -2.38315 | 29613 ft | 453 kts | 59° |
| 2026-05-08 18:55 | 53.66529 | -2.33720 | 29147 ft | 449 kts | 59° |
| 2026-05-08 18:55 | 53.68068 | -2.29158 | 28688 ft | 444 kts | 60° |
| 2026-05-08 18:56 | 53.69584 | -2.24661 | 28237 ft | 440 kts | 60° |
| 2026-05-08 18:56 | 53.71089 | -2.20188 | 27805 ft | 436 kts | 60° |
| 2026-05-08 18:56 | 53.72710 | -2.15906 | 27410 ft | 431 kts | 50° |
| 2026-05-08 18:56 | 53.74745 | -2.12233 | 26965 ft | 426 kts | 39° |
| 2026-05-08 18:57 | 53.77116 | -2.09299 | 26568 ft | 419 kts | 27° |
| 2026-05-08 18:57 | 53.78816 | -2.07800 | 26311 ft | 414 kts | 20° |
| 2026-05-08 18:57 | 53.82398 | -2.05591 | 25782 ft | 408 kts | 16° |
| 2026-05-08 18:57 | 53.85069 | -2.04019 | 25380 ft | 405 kts | 16° |
| 2026-05-08 18:58 | 53.87722 | -2.02452 | 24978 ft | 403 kts | 16° |
| 2026-05-08 18:58 | 53.90363 | -2.00885 | 24560 ft | 401 kts | 17° |
| 2026-05-08 18:58 | 53.92978 | -1.99325 | 24152 ft | 399 kts | 17° |
| 2026-05-08 18:58 | 53.95591 | -1.97763 | 23723 ft | 398 kts | 17° |
| 2026-05-08 18:59 | 53.98198 | -1.96207 | 23251 ft | 395 kts | 17° |
| 2026-05-08 18:59 | 54.00783 | -1.94662 | 22808 ft | 392 kts | 17° |
| 2026-05-08 18:59 | 54.03411 | -1.93086 | 22361 ft | 388 kts | 17° |
| 2026-05-08 18:59 | 54.05946 | -1.91564 | 21926 ft | 385 kts | 17° |
| 2026-05-08 19:00 | 54.07615 | -1.90561 | 21638 ft | 383 kts | 17° |
| 2026-05-08 19:00 | 54.10955 | -1.88555 | 21142 ft | 377 kts | 17° |
| 2026-05-08 19:00 | 54.13394 | -1.87106 | 20909 ft | 367 kts | 15° |
| 2026-05-08 19:00 | 54.15863 | -1.86135 | 20457 ft | 363 kts | 7° |
| 2026-05-08 19:01 | 54.18346 | -1.85372 | 19685 ft | 361 kts | 8° |
| 2026-05-08 19:01 | 54.20782 | -1.84621 | 19389 ft | 352 kts | 8° |
| 2026-05-08 19:01 | 54.23178 | -1.83878 | 19025 ft | 349 kts | 8° |
| 2026-05-08 19:01 | 54.25563 | -1.83134 | 18634 ft | 348 kts | 8° |
| 2026-05-08 19:02 | 54.27935 | -1.82388 | 18214 ft | 346 kts | 8° |
| 2026-05-08 19:02 | 54.30324 | -1.81629 | 17797 ft | 343 kts | 8° |
| 2026-05-08 19:02 | 54.32663 | -1.80890 | 17405 ft | 340 kts | 8° |
| 2026-05-08 19:02 | 54.34979 | -1.80162 | 17016 ft | 337 kts | 8° |
| 2026-05-08 19:03 | 54.37282 | -1.79440 | 16631 ft | 335 kts | 8° |
| 2026-05-08 19:03 | 54.39565 | -1.78724 | 16245 ft | 332 kts | 8° |
| 2026-05-08 19:03 | 54.41839 | -1.78004 | 16102 ft | 336 kts | 8° |
| 2026-05-08 19:03 | 54.44160 | -1.77267 | 16122 ft | 341 kts | 9° |
| 2026-05-08 19:04 | 54.46495 | -1.76524 | 16133 ft | 339 kts | 9° |
| 2026-05-08 19:04 | 54.48788 | -1.75795 | 15823 ft | 334 kts | 8° |
| 2026-05-08 19:04 | 54.51064 | -1.75088 | 15460 ft | 325 kts | 8° |
| 2026-05-08 19:04 | 54.53257 | -1.74408 | 14799 ft | 317 kts | 8° |
| 2026-05-08 19:05 | 54.55414 | -1.73751 | 14093 ft | 312 kts | 8° |
| 2026-05-08 19:05 | 54.57539 | -1.73120 | 13332 ft | 308 kts | 8° |
| 2026-05-08 19:05 | 54.59637 | -1.72505 | 12575 ft | 304 kts | 8° |
| 2026-05-08 19:05 | 54.61708 | -1.71901 | 11831 ft | 300 kts | 8° |
| 2026-05-08 19:06 | 54.63777 | -1.71300 | 11097 ft | 296 kts | 8° |
| 2026-05-08 19:06 | 54.65765 | -1.70725 | 10405 ft | 292 kts | 8° |
| 2026-05-08 19:06 | 54.67781 | -1.70144 | 9672 ft | 288 kts | 8° |
| 2026-05-08 19:06 | 54.69746 | -1.69580 | 8926 ft | 284 kts | 8° |
| 2026-05-08 19:07 | 54.71685 | -1.69027 | 8304 ft | 277 kts | 8° |
| 2026-05-08 19:07 | 54.73514 | -1.68508 | 8142 ft | 257 kts | 8° |
| 2026-05-08 19:07 | 54.75264 | -1.68008 | 8137 ft | 255 kts | 8° |
| 2026-05-08 19:07 | 54.77013 | -1.67487 | 8146 ft | 256 kts | 8° |
| 2026-05-08 19:08 | 54.78758 | -1.66962 | 8147 ft | 254 kts | 8° |
| 2026-05-08 19:08 | 54.80496 | -1.66439 | 8143 ft | 254 kts | 8° |
| 2026-05-08 19:08 | 54.82235 | -1.65915 | 8140 ft | 254 kts | 8° |
| 2026-05-08 19:08 | 54.83967 | -1.65392 | 7927 ft | 252 kts | 8° |
| 2026-05-08 19:09 | 54.85128 | -1.65042 | 7664 ft | 249 kts | 8° |
| 2026-05-08 19:09 | 54.87369 | -1.64368 | 6884 ft | 246 kts | 8° |
| 2026-05-08 19:09 | 54.88510 | -1.64026 | 6498 ft | 244 kts | 8° |
| 2026-05-08 19:09 | 54.90175 | -1.63530 | 5887 ft | 241 kts | 8° |
| 2026-05-08 19:10 | 54.91817 | -1.63034 | 5288 ft | 238 kts | 12° |
| 2026-05-08 19:10 | 54.93272 | -1.61760 | 5252 ft | 235 kts | 43° |
| 2026-05-08 19:10 | 54.94235 | -1.59410 | 5050 ft | 238 kts | 66° |
| 2026-05-08 19:10 | 54.94874 | -1.56752 | 4995 ft | 238 kts | 70° |
| 2026-05-08 19:11 | 54.95477 | -1.54073 | 5004 ft | 238 kts | 70° |
| 2026-05-08 19:11 | 54.96076 | -1.51388 | 5002 ft | 238 kts | 70° |
| 2026-05-08 19:11 | 54.96669 | -1.48698 | 5007 ft | 238 kts | 70° |
| 2026-05-08 19:11 | 54.97260 | -1.46020 | 4958 ft | 235 kts | 70° |
| 2026-05-08 19:12 | 54.97849 | -1.43367 | 4528 ft | 235 kts | 70° |
| 2026-05-08 19:12 | 54.98430 | -1.40720 | 4112 ft | 234 kts | 70° |
| 2026-05-08 19:12 | 54.99004 | -1.38068 | 4008 ft | 235 kts | 70° |
| 2026-05-08 19:12 | 54.99581 | -1.35398 | 4014 ft | 237 kts | 70° |
| 2026-05-08 19:13 | 55.00167 | -1.32675 | 4016 ft | 236 kts | 70° |
| 2026-05-08 19:13 | 55.00714 | -1.30092 | 4006 ft | 222 kts | 70° |
| 2026-05-08 19:13 | 55.01445 | -1.27847 | 4001 ft | 202 kts | 42° |
| 2026-05-08 19:13 | 55.02662 | -1.26853 | 4011 ft | 194 kts | 4° |
| 2026-05-08 19:14 | 55.04002 | -1.26935 | 4018 ft | 193 kts | 352° |
| 2026-05-08 19:14 | 55.05267 | -1.27624 | 3995 ft | 189 kts | 334° |
| 2026-05-08 19:14 | 55.06439 | -1.28644 | 3708 ft | 189 kts | 331° |
| 2026-05-08 19:14 | 55.07598 | -1.29710 | 3432 ft | 188 kts | 330° |
| 2026-05-08 19:15 | 55.08753 | -1.30782 | 3134 ft | 187 kts | 330° |
| 2026-05-08 19:15 | 55.09898 | -1.31848 | 3010 ft | 187 kts | 330° |
| 2026-05-08 19:15 | 55.11008 | -1.33020 | 3013 ft | 187 kts | 314° |
| 2026-05-08 19:15 | 55.11682 | -1.34919 | 3011 ft | 185 kts | 288° |
| 2026-05-08 19:16 | 55.11888 | -1.37116 | 3046 ft | 184 kts | 268° |
| 2026-05-08 19:16 | 55.11615 | -1.39269 | 3066 ft | 182 kts | 247° |
| 2026-05-08 19:16 | 55.11089 | -1.41277 | 3017 ft | 182 kts | 245° |
| 2026-05-08 19:16 | 55.10562 | -1.43287 | 3011 ft | 182 kts | 245° |
| 2026-05-08 19:17 | 55.10037 | -1.45292 | 2959 ft | 177 kts | 245° |
| 2026-05-08 19:17 | 55.09541 | -1.47182 | 2788 ft | 167 kts | 245° |
| 2026-05-08 19:17 | 55.09057 | -1.49026 | 2565 ft | 163 kts | 245° |
| 2026-05-08 19:17 | 55.08587 | -1.50812 | 2356 ft | 161 kts | 245° |
| 2026-05-08 19:18 | 55.08121 | -1.52584 | 2140 ft | 160 kts | 245° |
| 2026-05-08 19:18 | 55.07657 | -1.54345 | 1916 ft | 159 kts | 245° |
| 2026-05-08 19:18 | 55.07196 | -1.56099 | 1708 ft | 159 kts | 245° |
| 2026-05-08 19:18 | 55.06739 | -1.57832 | 1476 ft | 150 kts | 245° |
| 2026-05-08 19:19 | 55.06321 | -1.59417 | 1285 ft | 140 kts | 244° |
| 2026-05-08 19:19 | 55.05920 | -1.60934 | 1096 ft | 136 kts | 244° |
| 2026-05-08 19:19 | 55.05527 | -1.62421 | 920 ft | 134 kts | 244° |
| 2026-05-08 19:19 | 55.05132 | -1.63916 | 732 ft | 134 kts | 244° |
| 2026-05-08 19:20 | 55.04737 | -1.65409 | 528 ft | 137 kts | 244° |
| 2026-05-08 19:20 | 55.04475 | -1.66414 | 398 ft | 138 kts | 244° |
| 2026-05-08 19:20 | 55.03944 | -1.68399 | 250 ft | 116 kts | 245° |
| 2026-05-08 19:20 | 55.03733 | -1.69199 | 256 ft | 46 kts | 245° |
| 2026-05-08 19:21 | 55.03606 | -1.69680 | 266 ft | 41 kts | 245° |
| 2026-05-08 19:21 | 55.03495 | -1.70105 | 263 ft | 26 kts | 245° |
| 2026-05-08 19:21 | 55.03432 | -1.70340 | 265 ft | 21 kts | 245° |
| 2026-05-08 19:21 | 55.03398 | -1.70566 | 266 ft | 17 kts | 295° |
| 2026-05-08 19:22 | 55.03424 | -1.70620 | 264 ft | 0 kts | 316° |
| 2026-05-08 19:22 | 55.03427 | -1.70625 | 264 ft | 3 kts | 319° |
| 2026-05-08 19:23 | 55.03492 | -1.70646 | 264 ft | 14 kts | 1° |
| 2026-05-08 19:23 | 55.03537 | -1.70642 | 264 ft | 9 kts | 3° |
| 2026-05-08 19:23 | 55.03589 | -1.70691 | 265 ft | 1 kts | 298° |
| 2026-05-08 19:23 | 55.03600 | -1.70766 | 265 ft | 9 kts | 294° |
| 2026-05-08 19:24 | 55.03648 | -1.70779 | 265 ft | 7 kts | 6° |
| 2026-05-08 19:24 | 55.03656 | -1.70779 | 266 ft | 0 kts | 1° |